createdAt,value
2022-10-02T00:05:07.530Z,0.60
2022-10-02T00:13:21.484Z,0.80
2022-10-02T00:21:39.151Z,0.50
2022-10-02T00:29:52.658Z,0.68
2022-10-02T00:38:04.320Z,0.65
2022-10-02T00:46:29.807Z,0.82
2022-10-02T00:54:58.522Z,0.70
2022-10-02T01:03:21.247Z,1.00
2022-10-02T01:11:30.791Z,0.80
2022-10-02T01:19:42.375Z,0.82
2022-10-02T01:27:50.836Z,1.08
2022-10-02T01:35:56.146Z,0.98
2022-10-02T01:44:05.468Z,1.40
2022-10-02T01:52:41.241Z,1.20
2022-10-02T02:01:08.257Z,1.08
2022-10-02T02:09:20.185Z,1.13
2022-10-02T02:17:34.604Z,1.02
2022-10-02T02:25:45.347Z,0.60
2022-10-02T02:33:57.545Z,0.47
2022-10-02T02:42:06.659Z,0.50
2022-10-02T02:50:21.537Z,0.47
2022-10-02T02:58:34.862Z,0.60
2022-10-02T03:15:27.248Z,0.57
2022-10-02T03:31:44.196Z,0.70
2022-10-02T03:39:53.109Z,0.85
2022-10-02T03:47:58.390Z,1.23
2022-10-02T03:56:10.757Z,1.20
2022-10-02T04:04:19.276Z,1.17
2022-10-02T04:12:32.241Z,1.20
2022-10-02T04:20:44.561Z,1.23
2022-10-02T04:28:57.578Z,1.40
2022-10-02T04:37:14.295Z,1.10
2022-10-02T04:45:33.203Z,1.20
2022-10-02T04:53:53.252Z,1.17
2022-10-02T05:02:15.974Z,1.75
2022-10-02T05:10:44.134Z,1.10
2022-10-02T05:19:08.839Z,1.30
2022-10-02T05:27:39.237Z,1.23
2022-10-02T05:36:01.529Z,1.58
2022-10-02T05:44:15.358Z,1.35
2022-10-02T05:52:27.691Z,2.13
2022-10-02T06:00:40.512Z,1.75
2022-10-02T06:08:54.619Z,1.80
2022-10-02T06:17:04.359Z,1.70
2022-10-02T06:25:20.379Z,1.60
2022-10-02T06:33:28.336Z,1.75
2022-10-02T06:41:45.475Z,1.40
2022-10-02T06:50:07.807Z,1.58
2022-10-02T06:58:34.366Z,1.60
2022-10-02T07:06:48.039Z,1.40
2022-10-02T07:15:22.086Z,1.50
2022-10-02T07:23:44.086Z,1.90
2022-10-02T07:32:04.638Z,1.67
2022-10-02T07:40:30.144Z,1.30
2022-10-02T07:48:59.090Z,1.95
2022-10-02T07:57:21.863Z,1.30
2022-10-02T08:05:36.595Z,2.22
2022-10-02T08:13:46.464Z,1.35
2022-10-02T08:22:25.072Z,1.85
2022-10-02T08:30:30.553Z,1.58
2022-10-02T08:38:54.504Z,1.73
2022-10-02T08:47:33.337Z,1.35
2022-10-02T08:55:52.265Z,1.90
2022-10-02T09:04:38.371Z,1.10
2022-10-02T09:13:22.902Z,1.30
2022-10-02T09:21:51.705Z,1.35
2022-10-02T09:30:29.917Z,1.40
2022-10-02T09:39:16.494Z,1.40
2022-10-02T09:48:05.235Z,1.40
2022-10-02T09:56:41.337Z,1.05
2022-10-02T10:05:15.722Z,1.33
2022-10-02T10:13:47.714Z,1.08
2022-10-02T10:22:46.034Z,1.02
2022-10-02T10:31:40.942Z,1.40
2022-10-02T10:40:10.014Z,1.58
2022-10-02T10:48:37.834Z,1.27
2022-10-02T10:56:46.466Z,0.98
2022-10-02T11:05:08.725Z,1.17
2022-10-02T11:13:41.957Z,1.30
2022-10-02T11:22:31.007Z,1.85
2022-10-02T11:30:50.003Z,1.35
2022-10-02T11:39:15.187Z,1.50
2022-10-02T11:47:46.828Z,1.30
2022-10-02T11:56:09.093Z,1.60
2022-10-02T12:04:32.254Z,1.40
2022-10-02T12:21:30.292Z,1.67
2022-10-02T12:29:52.256Z,1.35
2022-10-02T12:38:07.447Z,1.63
2022-10-02T12:46:42.395Z,1.65
2022-10-02T12:55:19.378Z,1.70
2022-10-02T13:04:06.179Z,1.52
2022-10-02T13:12:32.597Z,1.40
2022-10-02T13:20:49.608Z,1.15
2022-10-02T13:29:21.072Z,1.80
2022-10-02T13:37:40.540Z,1.50
2022-10-02T13:45:53.347Z,1.55
2022-10-02T13:54:18.687Z,1.42
2022-10-02T14:02:48.567Z,1.10
2022-10-02T14:11:10.035Z,0.98
2022-10-02T14:19:32.312Z,1.30
2022-10-02T14:28:23.124Z,1.30
2022-10-02T14:36:34.114Z,1.65
2022-10-02T14:45:04.843Z,1.33
2022-10-02T14:53:23.537Z,1.17
2022-10-02T15:01:31.947Z,2.20
2022-10-02T15:10:07.489Z,1.40
2022-10-02T15:18:27.008Z,1.40
2022-10-02T15:26:48.917Z,2.20
2022-10-02T15:35:07.629Z,1.10
2022-10-02T15:43:35.072Z,1.55
2022-10-02T15:52:02.592Z,1.80
2022-10-02T16:00:19.896Z,1.90
2022-10-02T16:08:54.683Z,1.80
2022-10-02T16:17:18.746Z,1.77
2022-10-02T16:25:38.366Z,1.90
2022-10-02T16:33:56.673Z,2.38
2022-10-02T16:42:13.631Z,1.60
2022-10-02T16:50:28.353Z,1.50
2022-10-02T16:58:42.868Z,1.45
2022-10-02T17:06:56.144Z,1.60
2022-10-02T17:15:08.250Z,2.30
2022-10-02T17:23:25.728Z,1.98
2022-10-02T17:31:39.072Z,2.28
2022-10-02T17:39:59.073Z,1.95
2022-10-02T17:48:35.587Z,2.13
2022-10-02T17:56:56.062Z,3.15
2022-10-02T18:05:22.117Z,2.35
2022-10-02T18:13:44.184Z,2.40
2022-10-02T18:22:08.285Z,2.90
2022-10-02T18:30:22.289Z,3.45
2022-10-02T18:38:34.092Z,2.08
2022-10-02T18:46:51.941Z,1.92
2022-10-02T18:55:19.244Z,1.92
2022-10-02T19:03:35.463Z,1.67
2022-10-02T19:11:47.516Z,1.42
2022-10-02T19:19:56.867Z,1.65
2022-10-02T19:28:03.804Z,1.63
2022-10-02T19:36:20.711Z,1.05
2022-10-02T19:44:30.588Z,1.80
2022-10-02T19:52:49.311Z,1.45
2022-10-02T20:00:56.746Z,1.08
2022-10-02T20:09:10.339Z,1.40
2022-10-02T20:25:29.674Z,1.40
2022-10-02T20:33:40.450Z,1.15
2022-10-02T20:41:52.836Z,1.30
2022-10-02T20:50:24.503Z,1.13
2022-10-02T20:59:09.965Z,1.58
2022-10-02T21:07:40.916Z,1.23
2022-10-02T21:16:13.975Z,1.90
2022-10-02T21:24:49.752Z,1.23
2022-10-02T21:33:16.234Z,1.63
2022-10-02T21:41:48.741Z,1.30
2022-10-02T21:50:23.732Z,1.20
2022-10-02T21:58:58.599Z,1.40
2022-10-02T22:07:10.428Z,1.10
2022-10-02T22:15:25.241Z,1.30
2022-10-02T22:23:46.087Z,1.40
2022-10-02T22:32:34.922Z,1.20
2022-10-02T22:40:52.468Z,1.15
2022-10-02T22:49:05.952Z,1.35
2022-10-02T22:57:20.406Z,1.50
2022-10-02T23:05:33.844Z,1.77
2022-10-02T23:13:47.260Z,1.70
2022-10-02T23:21:59.680Z,1.30
2022-10-02T23:30:11.856Z,1.33
2022-10-02T23:38:23.930Z,1.90
2022-10-02T23:46:35.956Z,2.10
2022-10-02T23:54:55.466Z,3.53
